Time;durP1;ratioP1;P1;durP2;ratioP2;P2;SDS_P1;SDS_P2;PMS_P1;PMS_P2;Temp;Humidity;BMP_temperature;BMP_pressure;BME280_temperature;BME280_humidity;BME280_pressure;Samples;Min_cycle;Max_cycle;Signal;HPM_P1;HPM_P2
2021/04/13 00:00:09;;;;;;;28.57;22.37;;;;;;;2.85;82.18;99457.06;2261984;79;21148;-80
2021/04/13 00:03:12;;;;;;;27.73;22.27;;;;;;;2.82;82.31;99449.17;2262305;78;21254;-81
2021/04/13 00:06:13;;;;;;;24.83;20.90;;;;;;;2.76;82.70;99456.19;2262538;78;21112;-80
2021/04/13 00:09:15;;;;;;;26.53;21.93;;;;;;;2.74;83.18;99458.20;2262909;78;21147;-79
2021/04/13 00:12:17;;;;;;;29.73;23.60;;;;;;;2.75;83.06;99470.28;2262603;79;21168;-79
2021/04/13 00:15:18;;;;;;;27.03;22.73;;;;;;;2.75;83.14;99471.17;2262872;78;21128;-79
2021/04/13 00:18:19;;;;;;;23.40;19.63;;;;;;;2.78;82.86;99480.36;2262574;78;21125;-79
2021/04/13 00:21:20;;;;;;;24.77;19.40;;;;;;;2.77;82.40;99481.56;2262725;78;21140;-78
2021/04/13 00:24:21;;;;;;;23.33;19.90;;;;;;;2.83;82.68;99480.59;2262748;78;21085;-79
2021/04/13 00:27:22;;;;;;;22.93;20.40;;;;;;;2.77;82.75;99478.98;2262582;79;21188;-79
2021/04/13 00:30:23;;;;;;;34.60;22.00;;;;;;;2.72;83.13;99473.59;2262274;78;21160;-79
2021/04/13 00:33:24;;;;;;;26.27;21.43;;;;;;;2.73;83.17;99486.08;2262241;78;21120;-79
2021/04/13 00:36:25;;;;;;;27.83;21.80;;;;;;;2.70;83.18;99477.78;2261628;78;21140;-78
2021/04/13 00:39:26;;;;;;;25.83;22.40;;;;;;;2.70;83.23;99475.20;2262431;78;21093;-80
2021/04/13 00:42:27;;;;;;;25.97;21.87;;;;;;;2.73;82.62;99469.32;2261894;78;21128;-79
2021/04/13 00:45:30;;;;;;;24.20;20.73;;;;;;;2.68;83.03;99466.91;2261581;78;21125;-78
2021/04/13 00:48:31;;;;;;;25.43;20.30;;;;;;;2.66;82.86;99471.98;2261867;78;21128;-78
2021/04/13 00:51:32;;;;;;;24.83;20.70;;;;;;;2.62;83.08;99474.31;2263208;78;21262;-80
2021/04/13 00:54:35;;;;;;;29.33;19.87;;;;;;;2.64;83.02;99476.17;2263167;78;21124;-79
2021/04/13 00:57:36;;;;;;;27.33;20.63;;;;;;;2.55;82.71;99474.36;2263260;78;21235;-82
2021/04/13 01:00:37;;;;;;;24.87;20.77;;;;;;;2.46;82.68;99470.89;2247223;78;21133;-81
2021/04/13 01:03:39;;;;;;;23.77;20.13;;;;;;;2.37;82.54;99470.40;2245801;79;21272;-80
2021/04/13 01:06:40;;;;;;;23.87;21.10;;;;;;;2.29;82.74;99468.21;2245888;79;21145;-79
2021/04/13 01:09:41;;;;;;;28.50;23.13;;;;;;;2.21;82.76;99470.38;2245945;79;21239;-80
2021/04/13 01:12:42;;;;;;;25.27;22.47;;;;;;;2.11;82.86;99480.97;2245796;79;21117;-80
2021/04/13 01:15:44;;;;;;;27.63;21.57;;;;;;;1.96;82.68;99474.98;2245302;79;21137;-80
2021/04/13 01:18:45;;;;;;;27.30;23.10;;;;;;;1.81;82.61;99483.63;2245387;79;21132;-79
2021/04/13 01:21:47;;;;;;;24.70;21.27;;;;;;;1.68;82.76;99474.69;2245605;79;21121;-80
2021/04/13 01:24:51;;;;;;;26.80;22.27;;;;;;;1.62;82.70;99478.20;2245654;79;21136;-80
2021/04/13 01:27:52;;;;;;;26.05;23.10;;;;;;;1.55;83.03;99479.94;2245989;79;21157;-79
2021/04/13 01:30:53;;;;;;;25.63;21.97;;;;;;;1.48;82.82;99482.56;2245186;79;21145;-79
2021/04/13 01:33:55;;;;;;;24.13;20.80;;;;;;;1.46;82.77;99487.12;2244983;79;21117;-80
2021/04/13 01:37:02;;;;;;;21.33;18.60;;;;;;;1.45;82.84;99499.11;2244785;79;21117;-79
2021/04/13 01:40:03;;;;;;;24.23;19.73;;;;;;;1.45;82.61;99496.94;2244109;79;21101;-80
2021/04/13 01:43:02;;;;;;;19.53;17.53;;;;;;;1.44;82.61;99499.02;2244830;79;21101;-79
2021/04/13 01:46:03;;;;;;;17.17;15.37;;;;;;;1.47;82.57;99496.63;2245110;79;21152;-79
2021/04/13 01:49:04;;;;;;;17.17;15.37;;;;;;;1.48;82.51;99507.00;2245124;79;21133;-78
2021/04/13 01:52:05;;;;;;;14.90;13.50;;;;;;;1.46;82.82;99516.72;2245311;79;21599;-79
2021/04/13 01:55:07;;;;;;;14.37;13.03;;;;;;;1.37;82.86;99513.20;2245126;79;21133;-79
2021/04/13 01:58:08;;;;;;;15.27;13.70;;;;;;;1.32;82.99;99512.45;2244838;79;21129;-81
2021/04/13 02:01:10;;;;;;;15.13;13.53;;;;;;;1.29;83.09;99505.45;2244996;79;21086;-79
2021/04/13 02:04:13;;;;;;;13.70;12.33;;;;;;;1.27;83.04;99511.78;2245889;79;21255;-80
2021/04/13 02:07:19;;;;;;;13.20;11.83;;;;;;;1.21;82.93;99514.00;2245626;79;21153;-80
2021/04/13 02:10:22;;;;;;;12.03;10.73;;;;;;;1.13;82.93;99524.23;2245175;79;21145;-80
2021/04/13 02:13:22;;;;;;;11.03;9.93;;;;;;;1.07;83.12;99521.69;2245591;79;21097;-80
2021/04/13 02:16:23;;;;;;;11.57;10.40;;;;;;;1.03;83.26;99523.59;2245553;79;21108;-80
2021/04/13 02:19:24;;;;;;;9.90;9.00;;;;;;;1.01;82.99;99528.64;2245076;79;21235;-80
2021/04/13 02:22:25;;;;;;;10.00;9.10;;;;;;;1.01;83.37;99535.06;2246036;79;21506;-81
2021/04/13 02:25:26;;;;;;;9.57;8.67;;;;;;;1.01;82.98;99535.46;2244818;79;21152;-82
2021/04/13 02:28:27;;;;;;;8.90;8.07;;;;;;;0.99;83.11;99539.62;2245079;79;21117;-82
2021/04/13 02:31:47;;;;;;;10.07;8.90;;;;;;;0.96;83.23;99537.76;2244906;79;21132;-82
2021/04/13 02:34:40;;;;;;;9.03;8.20;;;;;;;0.93;83.36;99532.03;2243154;79;21105;-79
2021/04/13 02:37:41;;;;;;;9.90;8.40;;;;;;;0.88;83.49;99524.84;2244597;79;21224;-82
2021/04/13 02:40:44;;;;;;;10.10;9.13;;;;;;;0.82;83.68;99534.72;2244586;79;21109;-83
2021/04/13 02:43:45;;;;;;;9.80;8.90;;;;;;;0.79;83.74;99539.27;2244473;79;21093;-80
2021/04/13 02:46:46;;;;;;;16.63;9.57;;;;;;;0.77;83.94;99535.72;2244780;79;21149;-81
2021/04/13 02:49:47;;;;;;;10.77;9.67;;;;;;;0.76;83.75;99530.48;2244506;79;21419;-81
2021/04/13 02:52:48;;;;;;;9.97;9.07;;;;;;;0.73;84.19;99531.59;2244401;79;21121;-81
2021/04/13 02:55:50;;;;;;;9.17;8.37;;;;;;;0.72;84.15;99533.66;2244328;79;21129;-80
2021/04/13 02:58:51;;;;;;;8.80;8.00;;;;;;;0.70;84.28;99532.69;2246906;79;21144;-81
2021/04/13 03:01:52;;;;;;;9.20;8.30;;;;;;;0.68;84.25;99522.31;2262143;78;21116;-79
2021/04/13 03:04:53;;;;;;;8.60;7.80;;;;;;;0.67;84.29;99522.22;2261977;78;21419;-81
2021/04/13 03:07:54;;;;;;;8.17;7.33;;;;;;;0.65;84.32;99537.54;2262029;78;21291;-81
2021/04/13 03:10:55;;;;;;;7.43;6.63;;;;;;;0.64;84.30;99530.23;2262470;78;21085;-81
2021/04/13 03:13:56;;;;;;;7.33;6.63;;;;;;;0.61;84.32;99523.62;2261919;78;21108;-80
2021/04/13 03:16:57;;;;;;;9.57;6.27;;;;;;;0.60;84.59;99532.12;2261870;78;21105;-80
2021/04/13 03:19:58;;;;;;;7.43;6.60;;;;;;;0.59;84.53;99532.91;2261619;78;21116;-80
2021/04/13 03:22:59;;;;;;;7.97;6.33;;;;;;;0.60;84.43;99542.40;2261488;78;21132;-81
2021/04/13 03:26:00;;;;;;;7.10;6.50;;;;;;;0.60;84.43;99541.51;2261497;78;21117;-80
2021/04/13 03:29:01;;;;;;;7.80;7.10;;;;;;;0.57;84.69;99549.91;2261729;78;21255;-79
2021/04/13 03:32:02;;;;;;;7.10;6.40;;;;;;;0.62;84.91;99546.34;2261628;79;21128;-79
2021/04/13 03:35:03;;;;;;;5.83;5.27;;;;;;;0.62;84.47;99555.34;2261147;78;21132;-78
2021/04/13 03:38:04;;;;;;;7.13;6.53;;;;;;;0.57;84.56;99552.48;2261225;78;21218;-77
2021/04/13 03:41:06;;;;;;;7.70;6.93;;;;;;;0.54;84.49;99560.40;2261306;79;21124;-78
2021/04/13 03:44:07;;;;;;;5.80;5.30;;;;;;;0.53;84.67;99568.50;2260982;79;21125;-78
2021/04/13 03:47:08;;;;;;;7.00;6.33;;;;;;;0.52;84.77;99569.69;2260925;78;21152;-78
2021/04/13 03:50:09;;;;;;;7.00;6.40;;;;;;;0.49;84.75;99565.25;2261225;78;21112;-79
2021/04/13 03:53:10;;;;;;;6.83;6.23;;;;;;;0.47;84.79;99562.98;2261381;78;21409;-79
2021/04/13 03:56:11;;;;;;;6.80;6.20;;;;;;;0.47;84.82;99574.53;2261153;78;21123;-78
2021/04/13 03:59:12;;;;;;;6.73;6.13;;;;;;;0.48;84.80;99576.71;2261067;78;21139;-79
2021/04/13 04:02:13;;;;;;;6.80;5.93;;;;;;;0.50;84.74;99587.97;2261419;78;21089;-79
2021/04/13 04:05:17;;;;;;;7.47;6.77;;;;;;;0.49;84.62;99605.45;2261218;78;21807;-79
2021/04/13 04:08:18;;;;;;;6.90;6.30;;;;;;;0.50;84.49;99599.53;2261088;79;21127;-78
2021/04/13 04:11:19;;;;;;;6.30;5.70;;;;;;;0.52;84.45;99600.12;2260944;78;21354;-79
2021/04/13 04:14:20;;;;;;;5.97;5.57;;;;;;;0.54;84.40;99589.94;2260994;78;21085;-78
2021/04/13 04:17:21;;;;;;;5.43;5.03;;;;;;;0.56;84.34;99595.66;2260948;78;21117;-79
2021/04/13 04:20:22;;;;;;;5.97;5.47;;;;;;;0.57;84.31;99596.16;2261264;79;21263;-78
2021/04/13 04:23:23;;;;;;;6.30;5.70;;;;;;;0.58;84.25;99595.36;2260934;79;21136;-79
2021/04/13 04:26:24;;;;;;;6.23;5.63;;;;;;;0.59;84.07;99596.25;2260916;78;21117;-79
2021/04/13 04:29:25;;;;;;;6.30;5.73;;;;;;;0.59;84.21;99592.40;2260650;78;21136;-79
2021/04/13 04:32:26;;;;;;;6.00;5.50;;;;;;;0.58;84.18;99600.50;2260758;78;21462;-80
2021/04/13 04:35:27;;;;;;;6.33;5.73;;;;;;;0.58;84.25;99605.64;2261280;78;21107;-79
2021/04/13 04:38:28;;;;;;;6.30;5.80;;;;;;;0.58;84.30;99612.06;2261174;78;21124;-79
2021/04/13 04:41:29;;;;;;;6.50;5.90;;;;;;;0.60;84.23;99614.73;2261291;78;21405;-78
2021/04/13 04:44:30;;;;;;;8.03;7.13;;;;;;;0.63;84.18;99612.35;2261450;78;21116;-79
2021/04/13 04:47:32;;;;;;;10.33;9.27;;;;;;;0.66;83.98;99610.38;2261401;78;21160;-80
2021/04/13 04:50:33;;;;;;;8.90;8.20;;;;;;;0.67;83.80;99613.04;2261453;78;21085;-79
2021/04/13 04:53:34;;;;;;;9.43;8.63;;;;;;;0.69;83.87;99619.16;2261552;78;21144;-79
2021/04/13 04:56:35;;;;;;;9.20;8.40;;;;;;;0.71;83.93;99623.11;2261480;78;21085;-79
2021/04/13 04:59:36;;;;;;;8.17;7.43;;;;;;;0.71;83.83;99625.68;2261279;78;21148;-79
2021/04/13 05:02:37;;;;;;;8.30;7.60;;;;;;;0.74;83.67;99625.88;2261361;78;21109;-78
2021/04/13 05:05:39;;;;;;;11.70;10.50;;;;;;;0.78;83.61;99631.70;2261507;78;21433;-78
2021/04/13 05:08:40;;;;;;;9.97;9.10;;;;;;;0.84;83.58;99628.22;2260981;78;21125;-76
2021/04/13 05:11:41;;;;;;;7.10;6.53;;;;;;;0.87;83.30;99638.73;2261139;78;21132;-76
2021/04/13 05:14:42;;;;;;;6.97;6.37;;;;;;;0.89;83.25;99640.60;2260856;78;21136;-76
2021/04/13 05:17:43;;;;;;;6.93;6.33;;;;;;;0.89;83.23;99655.14;2261163;78;21536;-77
2021/04/13 05:20:44;;;;;;;6.17;5.67;;;;;;;0.89;83.05;99652.17;2261432;78;21144;-78
2021/04/13 05:23:45;;;;;;;6.93;6.23;;;;;;;0.92;82.85;99662.64;2261202;79;21092;-79
2021/04/13 05:26:46;;;;;;;6.37;5.83;;;;;;;0.93;82.57;99674.70;2261229;79;21159;-79
2021/04/13 05:29:48;;;;;;;6.43;5.83;;;;;;;0.93;82.76;99659.28;2261563;78;21120;-79
2021/04/13 05:32:49;;;;;;;15.93;9.40;;;;;;;0.90;82.87;99673.63;2260860;78;21116;-78
2021/04/13 05:35:50;;;;;;;8.77;6.70;;;;;;;0.90;82.87;99679.66;2261228;79;21128;-79
2021/04/13 05:38:51;;;;;;;12.67;8.83;;;;;;;0.91;82.83;99679.25;2261257;78;21139;-79
2021/04/13 05:41:53;;;;;;;12.53;9.27;;;;;;;0.92;82.81;99687.45;2261540;78;21125;-80
2021/04/13 05:44:54;;;;;;;10.83;8.03;;;;;;;0.92;82.81;99691.31;2261366;78;21168;-81
2021/04/13 05:47:55;;;;;;;14.93;9.80;;;;;;;0.92;82.77;99693.48;2261461;78;21195;-79
2021/04/13 05:50:56;;;;;;;17.07;9.97;;;;;;;0.91;82.75;99693.00;2261834;78;21125;-79
2021/04/13 05:53:57;;;;;;;10.67;8.20;;;;;;;0.92;82.90;99695.17;2261088;78;21121;-80
2021/04/13 05:56:58;;;;;;;7.57;6.93;;;;;;;0.94;82.79;99699.62;2261600;79;21136;-80
2021/04/13 06:00:00;;;;;;;7.63;6.93;;;;;;;1.00;82.69;99699.11;2261533;78;21178;-80
2021/04/13 06:03:02;;;;;;;11.33;7.47;;;;;;;1.02;82.54;99705.64;2261675;79;21124;-82
2021/04/13 06:06:03;;;;;;;10.13;7.30;;;;;;;1.08;82.49;99703.45;2261919;79;21191;-80
2021/04/13 06:09:04;;;;;;;8.63;7.30;;;;;;;1.09;82.29;99702.26;2261887;79;21140;-83
2021/04/13 06:12:05;;;;;;;8.83;6.67;;;;;;;1.09;82.20;99712.55;2261660;79;21129;-80
2021/04/13 06:15:06;;;;;;;8.63;7.73;;;;;;;1.10;82.19;99710.47;2262172;79;21140;-81
2021/04/13 06:18:07;;;;;;;8.73;7.43;;;;;;;1.11;82.18;99710.06;2262005;79;21132;-80
2021/04/13 06:21:08;;;;;;;8.20;7.30;;;;;;;1.11;82.11;99713.53;2261843;79;21243;-80
2021/04/13 06:24:09;;;;;;;8.17;7.00;;;;;;;1.11;82.16;99713.53;2262248;79;21136;-80
2021/04/13 06:27:11;;;;;;;8.60;6.77;;;;;;;1.14;82.03;99716.69;2262052;79;21160;-81
2021/04/13 06:30:12;;;;;;;10.00;7.03;;;;;;;1.19;81.98;99716.18;2261956;79;21180;-80
2021/04/13 06:33:13;;;;;;;8.03;6.77;;;;;;;1.27;81.79;99721.41;2261743;79;21143;-81
2021/04/13 06:36:16;;;;;;;7.77;6.97;;;;;;;1.33;81.71;99728.61;2262022;79;21144;-80
2021/04/13 06:39:17;;;;;;;10.53;7.10;;;;;;;1.37;81.57;99727.11;2262024;79;21115;-81
2021/04/13 06:42:18;;;;;;;7.07;6.37;;;;;;;1.46;81.37;99722.53;2261907;79;21127;-81
2021/04/13 06:45:19;;;;;;;10.43;7.50;;;;;;;1.51;81.16;99733.60;2261995;79;21119;-84
2021/04/13 06:48:20;;;;;;;8.37;6.93;;;;;;;1.59;81.15;99737.53;2262473;79;21250;-83
2021/04/13 06:51:23;;;;;;;12.30;7.97;;;;;;;1.65;80.78;99737.02;2261971;79;21399;-83
2021/04/13 06:54:24;;;;;;;13.47;8.43;;;;;;;1.66;80.60;99738.80;2261871;79;21116;-79
2021/04/13 06:57:25;;;;;;;13.90;9.87;;;;;;;1.68;80.53;99746.21;2262036;79;21127;-83
2021/04/13 07:00:26;;;;;;;7.53;6.73;;;;;;;1.76;80.65;99743.73;2256723;79;21209;-83
2021/04/13 07:03:27;;;;;;;8.27;6.90;;;;;;;1.85;80.29;99756.27;2244092;79;21124;-82
2021/04/13 07:06:31;;;;;;;14.80;9.80;;;;;;;1.87;80.37;99757.26;2243961;79;21142;-82
2021/04/13 07:09:32;;;;;;;10.43;8.30;;;;;;;1.91;80.25;99763.97;2244442;79;21140;-83
2021/04/13 07:12:34;;;;;;;8.67;7.40;;;;;;;1.93;80.17;99765.75;2244129;79;21403;-84
2021/04/13 07:15:36;;;;;;;9.97;8.53;;;;;;;1.91;80.01;99762.69;2244475;79;21125;-83
2021/04/13 07:18:37;;;;;;;7.60;6.23;;;;;;;1.92;80.05;99762.28;2244560;79;21112;-83
2021/04/13 07:21:38;;;;;;;12.70;8.17;;;;;;;1.98;79.86;99768.20;2244205;79;21121;-81
2021/04/13 07:24:39;;;;;;;10.57;7.93;;;;;;;2.00;79.83;99770.47;2244100;79;21614;-83
2021/04/13 07:27:40;;;;;;;13.97;8.40;;;;;;;2.10;79.78;99766.36;2244126;79;21210;-82
2021/04/13 07:30:43;;;;;;;11.27;9.17;;;;;;;2.17;79.66;99772.37;2244236;79;21287;-83
2021/04/13 07:33:44;;;;;;;21.30;11.37;;;;;;;2.26;79.24;99774.20;2244366;79;21124;-81
2021/04/13 07:36:45;;;;;;;18.00;11.73;;;;;;;2.35;79.14;99773.45;2244304;79;21137;-84
2021/04/13 07:39:46;;;;;;;16.67;11.10;;;;;;;2.39;78.91;99774.52;2243967;79;21541;-82
2021/04/13 07:42:47;;;;;;;21.43;15.47;;;;;;;2.37;78.75;99773.14;2243845;79;21132;-82
2021/04/13 07:45:49;;;;;;;16.37;12.50;;;;;;;2.47;78.69;99775.45;2244187;79;21297;-83
2021/04/13 07:48:50;;;;;;;20.90;14.93;;;;;;;2.51;78.52;99776.12;2243915;79;21097;-81
2021/04/13 07:51:51;;;;;;;14.03;11.90;;;;;;;2.56;78.62;99779.86;2243632;79;21137;-83
2021/04/13 07:54:54;;;;;;;15.97;12.93;;;;;;;2.62;78.36;99786.20;2243459;79;21109;-82
2021/04/13 07:57:55;;;;;;;14.13;12.00;;;;;;;2.60;78.05;99783.90;2243609;79;21145;-84
2021/04/13 08:00:56;;;;;;;17.57;14.33;;;;;;;2.63;78.07;99788.87;2243445;79;21113;-83
2021/04/13 08:03:57;;;;;;;30.53;21.87;;;;;;;2.73;77.93;99791.17;2243658;79;21149;-84
2021/04/13 08:06:59;;;;;;;17.20;15.03;;;;;;;2.86;77.78;99791.48;2244811;79;21506;-82
2021/04/13 08:10:02;;;;;;;25.60;16.33;;;;;;;3.05;77.38;99790.42;2243820;79;21093;-81
2021/04/13 08:13:03;;;;;;;14.80;11.90;;;;;;;3.31;76.96;99788.00;2243769;79;21121;-80
2021/04/13 08:16:05;;;;;;;13.43;11.83;;;;;;;3.35;75.55;99789.06;2243782;79;21136;-80
2021/04/13 08:19:06;;;;;;;11.80;10.33;;;;;;;3.32;75.99;99788.89;2244051;79;21243;-81
2021/04/13 08:22:07;;;;;;;11.77;9.77;;;;;;;3.37;76.25;99788.34;2243754;79;21153;-81
2021/04/13 08:25:08;;;;;;;9.80;8.83;;;;;;;3.42;75.94;99787.30;2243913;79;21263;-81
2021/04/13 08:28:10;;;;;;;10.53;9.53;;;;;;;3.60;75.39;99787.05;2243870;79;21307;-81
2021/04/13 08:34:30;;;;;;;8.50;7.50;;;;;;;3.79;75.01;99784.64;2243901;79;21173;-84
2021/04/13 08:37:31;;;;;;;8.90;7.83;;;;;;;3.80;73.98;99793.28;2243261;79;21125;-81
2021/04/13 08:40:34;;;;;;;6.97;6.20;;;;;;;3.84;74.53;99787.07;2243797;79;21148;-81
2021/04/13 08:43:39;;;;;;;8.77;6.87;;;;;;;3.89;73.61;99787.72;2243865;79;21395;-80
2021/04/13 08:46:38;;;;;;;7.43;5.03;;;;;;;3.92;73.51;99796.92;2243317;79;21145;-80
2021/04/13 08:49:40;;;;;;;5.50;4.67;;;;;;;4.05;72.86;99796.36;2243251;79;21236;-81
2021/04/13 08:52:42;;;;;;;5.50;4.90;;;;;;;4.22;72.74;99766.22;2243206;79;21137;-80
2021/04/13 08:55:45;;;;;;;5.00;4.50;;;;;;;4.30;72.54;99770.09;2243561;79;21133;-81
2021/04/13 08:58:46;;;;;;;5.57;4.67;;;;;;;4.20;72.83;99780.77;2243663;79;21125;-80
2021/04/13 09:01:49;;;;;;;6.70;5.33;;;;;;;4.19;72.79;99771.23;2243672;79;21263;-79
2021/04/13 09:04:50;;;;;;;4.60;4.10;;;;;;;4.19;72.08;99775.52;2243678;79;21149;-80
2021/04/13 09:07:51;;;;;;;6.67;4.07;;;;;;;4.27;71.99;99791.02;2243891;79;21169;-79
2021/04/13 09:10:52;;;;;;;7.43;4.87;;;;;;;4.35;71.50;99778.11;2243492;79;21120;-79
2021/04/13 09:13:53;;;;;;;6.53;4.43;;;;;;;4.34;71.24;99766.88;2243488;79;21511;-79
2021/04/13 09:16:56;;;;;;;7.10;5.30;;;;;;;4.24;70.99;99769.77;2243173;79;21132;-81
2021/04/13 09:19:57;;;;;;;8.27;4.80;;;;;;;4.46;71.22;99779.55;2243721;79;21114;-79
2021/04/13 09:22:58;;;;;;;4.73;4.23;;;;;;;4.88;71.52;99766.97;2243482;79;21415;-81
2021/04/13 09:25:59;;;;;;;5.83;4.60;;;;;;;5.13;70.11;99777.28;2243390;79;21152;-81
2021/04/13 09:29:00;;;;;;;6.03;4.13;;;;;;;5.12;70.25;99764.27;2243675;79;21132;-84
2021/04/13 09:32:01;;;;;;;5.90;4.10;;;;;;;5.03;69.63;99770.30;2243631;79;21218;-78
2021/04/13 09:35:03;;;;;;;7.03;4.33;;;;;;;4.86;69.86;99771.18;2243963;79;21136;-80
2021/04/13 09:38:06;;;;;;;6.07;4.50;;;;;;;4.68;70.35;99768.17;2243543;79;21097;-82
2021/04/13 09:41:07;;;;;;;5.50;4.50;;;;;;;4.54;71.26;99772.17;2243383;79;21148;-80
2021/04/13 09:44:08;;;;;;;8.33;4.40;;;;;;;4.43;71.27;99776.80;2243615;79;21245;-83
2021/04/13 09:47:09;;;;;;;6.93;4.13;;;;;;;4.29;71.29;99772.19;2243963;79;21446;-78
2021/04/13 09:50:12;;;;;;;6.30;4.30;;;;;;;4.27;71.17;99771.22;2243393;79;21419;-78
2021/04/13 09:53:13;;;;;;;5.33;3.93;;;;;;;4.25;70.99;99784.47;2243637;79;21116;-80
2021/04/13 09:56:14;;;;;;;6.70;4.60;;;;;;;4.37;71.12;99782.95;2243455;79;21121;-79
2021/04/13 09:59:15;;;;;;;6.47;5.03;;;;;;;4.44;71.47;99781.16;2243139;79;21462;-79
2021/04/13 10:02:16;;;;;;;5.70;4.30;;;;;;;4.53;70.35;99785.50;2242654;79;21125;-79
2021/04/13 10:05:17;;;;;;;5.53;5.03;;;;;;;4.52;70.87;99777.67;2243225;79;21121;-78
2021/04/13 10:08:18;;;;;;;5.40;4.17;;;;;;;4.46;70.34;99775.27;2243412;79;21474;-78
2021/04/13 10:11:19;;;;;;;7.27;4.27;;;;;;;4.37;70.42;99764.86;2243489;79;21144;-79
2021/04/13 10:14:20;;;;;;;11.90;5.40;;;;;;;4.26;71.12;99770.73;2243931;79;21243;-81
2021/04/13 10:17:21;;;;;;;6.97;4.83;;;;;;;4.19;71.45;99760.01;2243615;79;21149;-79
2021/04/13 10:20:22;;;;;;;5.93;5.40;;;;;;;4.20;71.60;99752.34;2243437;79;21105;-79
2021/04/13 10:23:24;;;;;;;5.77;4.80;;;;;;;4.24;71.86;99747.80;2243463;79;21128;-80
2021/04/13 10:26:25;;;;;;;5.93;4.30;;;;;;;4.24;70.99;99751.69;2243801;79;21515;-80
2021/04/13 10:29:26;;;;;;;5.63;5.00;;;;;;;4.23;70.89;99752.90;2242854;79;21138;-79
2021/04/13 10:32:29;;;;;;;10.00;5.40;;;;;;;4.24;71.68;99749.09;2243179;79;21149;-80
2021/04/13 10:35:30;;;;;;;5.40;4.70;;;;;;;4.42;72.38;99754.34;2243306;79;21116;-81
2021/04/13 10:38:31;;;;;;;6.20;5.57;;;;;;;4.40;70.85;99751.69;2243518;79;21133;-81
2021/04/13 10:41:32;;;;;;;10.23;8.37;;;;;;;4.43;70.92;99752.24;2243587;79;21510;-81
2021/04/13 10:44:33;;;;;;;19.17;17.13;;;;;;;4.41;71.04;99741.83;2243149;79;21427;-79
2021/04/13 10:47:35;;;;;;;7.53;4.47;;;;;;;4.57;71.20;99737.41;2243272;79;21295;-81
2021/04/13 10:50:36;;;;;;;8.03;4.00;;;;;;;4.81;70.51;99741.20;2243094;79;21140;-79
2021/04/13 10:53:37;;;;;;;4.97;4.37;;;;;;;4.84;69.29;99731.01;2242359;79;21101;-81
2021/04/13 10:56:38;;;;;;;4.90;4.10;;;;;;;4.68;69.82;99729.38;2243374;79;21243;-79
2021/04/13 10:59:39;;;;;;;7.73;5.80;;;;;;;4.55;70.61;99739.04;2243870;79;21132;-81
2021/04/13 11:02:40;;;;;;;7.73;5.67;;;;;;;4.49;70.67;99734.45;2255624;79;21108;-79
2021/04/13 11:05:42;;;;;;;6.53;5.00;;;;;;;4.34;71.02;99731.09;2261490;78;21101;-84
2021/04/13 11:08:43;;;;;;;6.63;4.53;;;;;;;4.24;70.92;99741.34;2261279;79;21243;-79
2021/04/13 11:11:45;;;;;;;5.63;4.43;;;;;;;4.13;70.91;99748.95;2261420;78;21128;-81
2021/04/13 11:14:46;;;;;;;8.30;5.43;;;;;;;4.28;70.97;99739.40;2261341;78;21411;-80
2021/04/13 11:17:48;;;;;;;10.67;6.63;;;;;;;4.60;70.82;99737.16;2261180;78;21540;-80
2021/04/13 11:20:49;;;;;;;6.17;4.33;;;;;;;5.01;69.74;99728.82;2260884;78;21127;-80
2021/04/13 11:23:53;;;;;;;17.37;7.93;;;;;;;5.49;67.93;99715.53;2261162;78;21089;-83
2021/04/13 11:26:55;;;;;;;5.57;4.43;;;;;;;5.97;67.85;99711.28;2261223;79;21438;-79
2021/04/13 11:29:56;;;;;;;4.30;3.43;;;;;;;6.28;66.36;99708.33;2260879;78;21140;-79
2021/04/13 11:32:57;;;;;;;4.90;3.50;;;;;;;6.37;64.49;99723.39;2260834;78;21133;-80
2021/04/13 11:35:58;;;;;;;12.93;7.60;;;;;;;6.24;64.23;99712.91;2261368;78;21392;-80
2021/04/13 11:38:59;;;;;;;3.47;3.00;;;;;;;6.00;66.80;99707.94;2261452;79;21118;-83
2021/04/13 11:42:00;;;;;;;4.80;3.73;;;;;;;5.69;65.13;99716.91;2261343;78;21397;-81
2021/04/13 11:45:03;;;;;;;7.57;3.93;;;;;;;5.56;66.44;99711.11;2261039;78;21113;-81
2021/04/13 11:48:04;;;;;;;3.90;3.50;;;;;;;5.57;66.85;99719.36;2261549;78;21152;-81
2021/04/13 11:51:05;;;;;;;4.33;3.40;;;;;;;5.80;66.70;99716.51;2261087;78;21242;-79
2021/04/13 11:54:06;;;;;;;3.70;3.20;;;;;;;5.94;65.71;99713.73;2261704;78;21537;-80
2021/04/13 11:57:07;;;;;;;5.40;3.50;;;;;;;6.13;65.10;99714.16;2261360;78;21367;-79
2021/04/13 12:00:10;;;;;;;6.50;4.00;;;;;;;5.97;64.67;99704.80;2261154;79;21744;-79
2021/04/13 12:03:12;;;;;;;6.13;3.50;;;;;;;5.68;63.91;99702.19;2261026;78;21140;-79
2021/04/13 12:06:13;;;;;;;7.97;4.80;;;;;;;5.34;65.30;99707.55;2261829;78;21417;-80
2021/04/13 12:09:14;;;;;;;5.27;3.90;;;;;;;5.20;66.22;99702.52;2260937;78;21503;-80
2021/04/13 12:12:15;;;;;;;5.30;4.10;;;;;;;5.21;65.29;99712.97;2261529;78;21544;-81
2021/04/13 12:15:19;;;;;;;9.73;5.97;;;;;;;5.22;65.37;99709.57;2261583;78;21140;-81
2021/04/13 12:18:21;;;;;;;5.73;4.40;;;;;;;5.39;66.32;99705.17;2261425;78;21125;-81
2021/04/13 12:21:23;;;;;;;8.10;4.93;;;;;;;5.65;65.20;99708.53;2261521;79;21132;-82
2021/04/13 12:24:24;;;;;;;4.30;3.90;;;;;;;5.97;63.82;99702.21;2262055;78;21132;-82
2021/04/13 12:27:25;;;;;;;7.40;4.80;;;;;;;6.10;64.44;99695.00;2261658;78;21446;-82
2021/04/13 12:30:26;;;;;;;6.30;4.60;;;;;;;5.95;64.09;99688.71;2261467;78;21089;-81
2021/04/13 12:33:27;;;;;;;4.40;4.00;;;;;;;5.69;63.51;99691.02;2260809;78;21188;-80
2021/04/13 12:36:28;;;;;;;8.37;4.20;;;;;;;5.18;63.88;99690.80;2261150;78;21124;-80
2021/04/13 12:39:31;;;;;;;8.50;4.90;;;;;;;5.18;63.88;99690.80;2261248;78;21423;-80
2021/04/13 12:42:32;;;;;;;6.80;4.67;;;;;;;5.11;64.61;99688.33;2261274;79;21403;-81
2021/04/13 12:45:33;;;;;;;8.43;5.67;;;;;;;5.06;64.27;99683.75;2261136;78;21407;-81
2021/04/13 12:48:35;;;;;;;6.93;4.43;;;;;;;5.03;64.72;99678.44;2261081;78;21398;-80
2021/04/13 12:51:37;;;;;;;6.90;5.00;;;;;;;5.20;64.11;99683.10;2261092;78;21246;-80
2021/04/13 12:54:38;;;;;;;10.63;6.00;;;;;;;5.21;63.96;99661.20;2261732;79;21116;-80
2021/04/13 12:57:39;;;;;;;12.03;6.87;;;;;;;5.21;65.17;99657.73;2260877;78;21148;-80
2021/04/13 13:00:43;;;;;;;6.30;4.90;;;;;;;5.34;64.91;99661.36;2261186;78;21128;-80
2021/04/13 13:03:44;;;;;;;7.90;4.83;;;;;;;5.56;62.86;99655.03;2261421;78;21136;-80
2021/04/13 13:06:45;;;;;;;7.07;4.90;;;;;;;5.66;63.19;99642.95;2261975;78;21143;-80
2021/04/13 13:09:46;;;;;;;39.73;11.13;;;;;;;5.59;63.80;99637.44;2261311;78;21125;-79
2021/04/13 13:12:47;;;;;;;9.73;6.80;;;;;;;5.51;64.63;99640.10;2261600;78;21132;-80
2021/04/13 13:15:49;;;;;;;12.23;6.50;;;;;;;5.49;63.81;99639.14;2261521;78;21092;-81
2021/04/13 13:18:52;;;;;;;12.77;6.57;;;;;;;5.39;64.80;99643.91;2261666;78;21124;-80
2021/04/13 13:21:53;;;;;;;13.03;8.00;;;;;;;5.35;64.03;99636.83;2261149;78;21128;-80
2021/04/13 13:24:54;;;;;;;11.50;6.80;;;;;;;5.23;64.28;99632.80;2261676;78;21129;-81
2021/04/13 13:27:55;;;;;;;14.63;9.03;;;;;;;5.13;63.80;99627.58;2261351;78;21156;-78
2021/04/13 13:30:56;;;;;;;18.50;8.10;;;;;;;5.06;64.48;99627.71;2261257;78;21250;-81
2021/04/13 13:33:57;;;;;;;15.07;6.73;;;;;;;5.04;64.82;99625.46;2261857;78;21157;-81
2021/04/13 13:36:59;;;;;;;9.07;6.77;;;;;;;5.06;64.76;99613.48;2261640;78;21081;-81
2021/04/13 13:40:00;;;;;;;27.00;7.73;;;;;;;5.02;65.03;99612.86;2261484;78;21117;-79
2021/04/13 13:43:01;;;;;;;10.20;6.40;;;;;;;5.03;65.24;99612.05;2261612;78;21155;-80
2021/04/13 13:46:02;;;;;;;8.93;6.70;;;;;;;5.07;65.09;99601.02;2262079;79;21355;-80
2021/04/13 13:49:03;;;;;;;9.60;6.47;;;;;;;5.07;64.68;99600.13;2261180;78;21144;-79
2021/04/13 13:52:04;;;;;;;20.17;8.80;;;;;;;5.01;64.99;99600.73;2261178;78;21121;-80
2021/04/13 13:55:05;;;;;;;14.33;8.13;;;;;;;5.03;65.02;99596.52;2260656;78;21139;-78
2021/04/13 13:58:08;;;;;;;22.37;8.77;;;;;;;5.15;65.57;99596.59;2261204;79;21535;-79
2021/04/13 14:01:09;;;;;;;15.90;6.93;;;;;;;5.22;65.56;99584.44;2260905;78;21127;-79
2021/04/13 14:04:11;;;;;;;12.27;7.87;;;;;;;5.40;68.02;99587.84;2245632;78;21122;-80
2021/04/13 14:07:12;;;;;;;9.47;6.47;;;;;;;5.68;64.45;99581.74;2243748;79;21434;-79
2021/04/13 14:10:13;;;;;;;20.33;8.97;;;;;;;5.53;64.58;99581.50;2243491;79;21521;-78
2021/04/13 14:13:14;;;;;;;7.10;5.37;;;;;;;5.43;65.16;99580.20;2243871;79;21137;-82
2021/04/13 14:16:15;;;;;;;13.10;6.53;;;;;;;5.37;64.75;99578.23;2244002;79;21121;-82
2021/04/13 14:19:16;;;;;;;8.77;5.83;;;;;;;5.49;65.23;99578.30;2243523;79;21133;-79